Toledo, Iowa
Current Conditions -  °F | °C
As of 6:53 PM on Thursday 27 Nov 2014 (Local Time) from KMIW Reporting Station
Few Clouds Few Clouds  
Wind Chill: -19°   Ceiling: Unl
Heat Index: -14°   Visibility: 10mi
Dew Point: -18°   Wind: 5mph
Humidity: 76%   Direction: 110°ESE
Pressure: 30.38"   Gusts: NA
Location:  42°N, 92.58°W
Report Text: KMIW 280053Z AUTO 11004KT 10SM FEW055 M14/M18 A3038 RMK AO2 SLP313 T11441178
Loading
Personal Weather Stations






























Interactive Weather Map New forecast layout! Learn more

10-Day Weather Forecast

Advertisements
Track Severe Weather on mobile